createdAt,value
2023-01-11T00:02:00.134Z,100633.16
2023-01-11T00:04:30.216Z,100626.34
2023-01-11T00:06:58.177Z,100624.72
2023-01-11T00:09:25.231Z,100615.00
2023-01-11T00:11:52.180Z,100624.28
2023-01-11T00:14:20.857Z,100603.81
2023-01-11T00:16:47.702Z,100615.00
2023-01-11T00:19:14.623Z,100601.66
2023-01-11T00:21:41.541Z,100605.00
2023-01-11T00:24:08.540Z,100597.72
2023-01-11T00:26:35.419Z,100607.63
2023-01-11T00:29:02.277Z,100597.09
2023-01-11T00:31:30.544Z,100610.34
2023-01-11T00:33:57.605Z,100607.63
2023-01-11T00:36:24.443Z,100594.63
2023-01-11T00:38:53.535Z,100590.53
2023-01-11T00:41:40.723Z,100583.28
2023-01-11T00:44:28.749Z,100573.19
2023-01-11T00:47:15.548Z,100576.63
2023-01-11T00:49:43.012Z,100571.00
2023-01-11T00:52:10.366Z,100563.47
2023-01-11T00:54:37.842Z,100567.38
2023-01-11T00:57:07.209Z,100563.00
2023-01-11T00:59:34.313Z,100563.88
2023-01-11T01:02:02.706Z,100557.53
2023-01-11T01:04:29.592Z,100555.06
2023-01-11T01:06:56.642Z,100548.53
2023-01-11T01:09:23.660Z,100539.88
2023-01-11T01:11:50.650Z,100543.69
2023-01-11T01:14:28.300Z,100551.06
2023-01-11T01:16:57.618Z,100531.28
2023-01-11T01:19:27.721Z,100543.25
2023-01-11T01:21:56.588Z,100549.59
2023-01-11T01:24:24.096Z,100540.75
2023-01-11T01:26:51.626Z,100539.00
2023-01-11T01:29:18.718Z,100529.56
2023-01-11T01:31:45.712Z,100529.06
2023-01-11T01:34:13.602Z,100537.63
2023-01-11T01:36:41.819Z,100517.72
2023-01-11T01:39:11.168Z,100522.19
2023-01-11T01:41:38.982Z,100514.53
2023-01-11T01:44:53.842Z,100510.06
2023-01-11T01:47:26.428Z,100508.47
2023-01-11T01:49:54.218Z,100513.59
2023-01-11T01:52:28.876Z,100501.97
2023-01-11T01:55:01.939Z,100508.88
2023-01-11T01:57:35.746Z,100494.66
2023-01-11T02:00:08.156Z,100488.66
2023-01-11T02:02:37.520Z,100495.84
2023-01-11T02:05:07.369Z,100494.97
2023-01-11T02:07:40.534Z,100494.16
2023-01-11T02:10:12.806Z,100490.16
2023-01-11T02:12:46.531Z,100491.19
2023-01-11T02:15:14.742Z,100493.16
2023-01-11T02:17:42.150Z,100481.59
2023-01-11T02:20:26.896Z,100489.53
2023-01-11T02:23:41.850Z,100477.31
2023-01-11T02:27:03.163Z,100475.22
2023-01-11T02:29:44.729Z,100482.22
2023-01-11T02:32:27.323Z,100467.25
2023-01-11T02:35:13.651Z,100471.34
2023-01-11T02:38:00.210Z,100466.47
2023-01-11T02:40:52.637Z,100471.38
2023-01-11T02:43:49.284Z,100460.72
2023-01-11T02:46:30.385Z,100466.16
2023-01-11T02:49:09.031Z,100472.63
2023-01-11T02:51:42.577Z,100455.00
2023-01-11T02:54:12.644Z,100469.88
2023-01-11T02:56:45.471Z,100465.88
2023-01-11T02:59:18.062Z,100475.31
2023-01-11T03:01:49.528Z,100466.03
2023-01-11T03:09:24.185Z,100461.03
2023-01-11T03:12:29.973Z,100451.06
2023-01-11T03:15:16.935Z,100448.94
2023-01-11T03:18:06.861Z,100437.19
2023-01-11T03:20:40.854Z,100445.19
2023-01-11T03:23:18.923Z,100435.41
2023-01-11T03:25:59.555Z,100436.00
2023-01-11T03:28:36.742Z,100435.25
2023-01-11T03:31:15.252Z,100433.16
2023-01-11T03:33:55.714Z,100431.50
2023-01-11T03:36:30.988Z,100429.91
2023-01-11T03:39:09.630Z,100434.38
2023-01-11T03:41:41.398Z,100425.44
2023-01-11T03:44:12.781Z,100435.97
2023-01-11T03:46:48.255Z,100428.69
2023-01-11T03:49:24.925Z,100426.19
2023-01-11T03:51:54.667Z,100431.84
2023-01-11T03:54:26.577Z,100422.34
2023-01-11T03:57:03.434Z,100423.75
2023-01-11T03:59:30.755Z,100420.09
2023-01-11T04:01:59.244Z,100426.63
2023-01-11T04:04:28.620Z,100417.09
2023-01-11T04:06:56.414Z,100421.34
2023-01-11T04:09:23.394Z,100422.34
2023-01-11T04:11:50.300Z,100426.44
2023-01-11T04:14:17.214Z,100431.16
2023-01-11T04:16:44.056Z,100422.25
2023-01-11T04:19:10.914Z,100422.69
2023-01-11T04:21:39.098Z,100435.25
2023-01-11T04:24:06.951Z,100417.81
2023-01-11T04:26:33.951Z,100422.09
2023-01-11T04:29:00.860Z,100416.75
2023-01-11T04:31:27.869Z,100418.13
2023-01-11T04:33:54.847Z,100420.59
2023-01-11T04:36:21.804Z,100425.50
2023-01-11T04:38:50.082Z,100420.84
2023-01-11T04:41:35.966Z,100422.47
2023-01-11T04:44:02.919Z,100418.59
2023-01-11T04:46:29.784Z,100414.94
2023-01-11T04:48:56.702Z,100418.56
2023-01-11T04:51:23.858Z,100421.41
2023-01-11T04:53:52.208Z,100427.97
2023-01-11T04:56:19.633Z,100430.84
2023-01-11T04:58:46.830Z,100423.31
2023-01-11T05:01:17.544Z,100424.34
2023-01-11T05:03:45.916Z,100419.06
2023-01-11T05:06:14.630Z,100428.00
2023-01-11T05:08:45.977Z,100425.78
2023-01-11T05:11:15.798Z,100429.25
2023-01-11T05:13:42.922Z,100426.00
2023-01-11T05:16:12.624Z,100433.13
2023-01-11T05:18:40.963Z,100439.00
2023-01-11T05:21:08.377Z,100430.09
2023-01-11T05:23:36.530Z,100422.34
2023-01-11T05:26:05.744Z,100427.63
2023-01-11T05:28:34.861Z,100430.09
2023-01-11T05:31:01.982Z,100437.84
2023-01-11T05:33:29.338Z,100438.22
2023-01-11T05:36:01.695Z,100433.75
2023-01-11T05:38:29.644Z,100427.03
2023-01-11T05:40:58.452Z,100429.06
2023-01-11T05:43:27.068Z,100438.22
2023-01-11T05:45:56.775Z,100434.97
2023-01-11T05:48:24.614Z,100428.47
2023-01-11T05:50:53.008Z,100427.63
2023-01-11T05:53:23.862Z,100444.34
2023-01-11T05:55:55.220Z,100435.78
2023-01-11T05:58:24.040Z,100443.53
2023-01-11T06:00:53.167Z,100444.16
2023-01-11T06:03:23.118Z,100448.81
2023-01-11T06:05:51.276Z,100457.38
2023-01-11T06:08:19.518Z,100454.09
2023-01-11T06:10:52.619Z,100461.84
2023-01-11T06:13:28.767Z,100459.41
2023-01-11T06:16:02.265Z,100459.81
2023-01-11T06:18:34.451Z,100454.53
2023-01-11T06:21:01.868Z,100463.88
2023-01-11T06:23:31.512Z,100465.13
2023-01-11T06:26:02.228Z,100463.50
2023-01-11T06:28:29.114Z,100463.91
2023-01-11T06:30:58.307Z,100453.31
2023-01-11T06:33:27.793Z,100461.88
2023-01-11T06:35:58.325Z,100456.56
2023-01-11T06:38:26.478Z,100454.94
2023-01-11T06:40:56.077Z,100458.19
2023-01-11T06:43:24.252Z,100453.09
2023-01-11T06:45:51.559Z,100450.81
2023-01-11T06:48:20.291Z,100460.59
2023-01-11T06:50:48.997Z,100466.50
2023-01-11T06:53:17.704Z,100470.34
2023-01-11T06:55:44.862Z,100480.34
2023-01-11T06:58:11.860Z,100475.66
2023-01-11T07:00:38.940Z,100484.22
2023-01-11T07:03:06.881Z,100471.16
2023-01-11T07:05:35.652Z,100486.44
2023-01-11T07:08:04.048Z,100475.22
2023-01-11T07:10:32.285Z,100473.59
2023-01-11T07:12:59.197Z,100470.94
2023-01-11T07:15:26.158Z,100472.56
2023-01-11T07:17:55.564Z,100479.72
2023-01-11T07:20:23.311Z,100486.25
2023-01-11T07:22:50.304Z,100492.31
2023-01-11T07:25:17.634Z,100495.16
2023-01-11T07:27:45.860Z,100491.88
2023-01-11T07:30:13.774Z,100487.59
2023-01-11T07:32:40.749Z,100484.94
2023-01-11T07:35:08.983Z,100488.59
2023-01-11T07:37:38.012Z,100496.31
2023-01-11T07:40:06.443Z,100503.25
2023-01-11T07:42:52.000Z,100496.75
2023-01-11T07:45:20.314Z,100499.63
2023-01-11T07:47:50.506Z,100515.53
2023-01-11T07:50:17.783Z,100506.56
2023-01-11T07:52:47.821Z,100498.84
2023-01-11T07:55:15.012Z,100511.69
2023-01-11T07:57:41.889Z,100550.81
2023-01-11T08:00:10.946Z,100570.59
2023-01-11T08:02:39.364Z,100559.13
2023-01-11T08:05:07.568Z,100564.22
2023-01-11T08:07:34.449Z,100568.09
2023-01-11T08:10:03.087Z,100566.84
2023-01-11T08:12:51.362Z,100568.88
2023-01-11T08:15:18.414Z,100555.03
2023-01-11T08:17:46.611Z,100566.66
2023-01-11T08:20:13.533Z,100563.19
2023-01-11T08:22:40.545Z,100566.03
2023-01-11T08:25:08.461Z,100572.16
2023-01-11T08:27:35.469Z,100576.22
2023-01-11T08:30:02.484Z,100582.97
2023-01-11T08:32:29.742Z,100584.41
2023-01-11T08:34:58.025Z,100590.94
2023-01-11T08:37:24.939Z,100581.97
2023-01-11T08:39:51.841Z,100588.50
2023-01-11T08:42:18.802Z,100592.38
2023-01-11T08:44:45.730Z,100575.03
2023-01-11T08:47:13.793Z,100581.16
2023-01-11T08:49:42.877Z,100582.00
2023-01-11T08:52:16.259Z,100581.38
2023-01-11T08:54:43.223Z,100574.66
2023-01-11T08:57:10.710Z,100562.41
2023-01-11T08:59:37.663Z,100560.59
2023-01-11T09:02:06.279Z,100563.66
2023-01-11T09:04:34.071Z,100571.00
2023-01-11T09:07:02.270Z,100567.97
2023-01-11T09:09:31.429Z,100582.44
2023-01-11T09:12:00.690Z,100580.19
2023-01-11T09:14:29.106Z,100591.78
2023-01-11T09:16:57.077Z,100598.13
2023-01-11T09:19:24.529Z,100619.34
2023-01-11T09:21:52.189Z,100624.22
2023-01-11T09:24:19.486Z,100613.19
2023-01-11T09:26:48.293Z,100619.94
2023-01-11T09:29:15.438Z,100613.81
2023-01-11T09:31:42.552Z,100610.97
2023-01-11T09:34:12.629Z,100608.09
2023-01-11T09:36:40.651Z,100607.09
2023-01-11T09:39:11.651Z,100610.94
2023-01-11T09:42:05.296Z,100606.06
2023-01-11T09:44:37.520Z,100615.84
2023-01-11T09:47:19.476Z,100632.56
2023-01-11T09:49:56.088Z,100632.56
2023-01-11T09:52:36.084Z,100641.31
2023-01-11T09:55:03.870Z,100626.03
2023-01-11T09:57:53.598Z,100630.09
2023-01-11T10:00:36.272Z,100643.53
2023-01-11T10:04:03.947Z,100646.22
2023-01-11T10:06:45.041Z,100640.69
2023-01-11T10:18:27.732Z,100644.97
2023-01-11T10:19:12.302Z,100646.22
2023-01-11T10:21:43.957Z,100639.47
2023-01-11T10:24:23.507Z,100643.94
2023-01-11T10:26:57.510Z,100636.59
2023-01-11T10:29:46.044Z,100633.31
2023-01-11T10:32:53.130Z,100641.47
2023-01-11T10:35:45.553Z,100639.44
2023-01-11T10:38:40.834Z,100633.28
2023-01-11T10:41:22.063Z,100635.28
2023-01-11T10:44:04.898Z,100636.09
2023-01-11T10:46:36.267Z,100642.19
2023-01-11T10:49:43.908Z,100626.25
2023-01-11T10:52:35.830Z,100625.41
2023-01-11T10:55:13.202Z,100635.38
2023-01-11T10:58:02.857Z,100635.97
2023-01-11T11:00:41.848Z,100637.19
2023-01-11T11:03:54.684Z,100647.41
2023-01-11T11:06:41.520Z,100644.94
2023-01-11T11:09:24.434Z,100643.66
2023-01-11T11:11:58.795Z,100644.44
2023-01-11T11:14:37.734Z,100653.44
2023-01-11T11:17:20.658Z,100651.22
2023-01-11T11:19:47.980Z,100643.25
2023-01-11T11:22:16.576Z,100646.72
2023-01-11T11:24:50.531Z,100650.63
2023-01-11T11:27:26.866Z,100644.72
2023-01-11T11:29:57.248Z,100647.97
2023-01-11T11:32:29.789Z,100648.56
2023-01-11T11:34:57.370Z,100649.16
2023-01-11T11:37:32.867Z,100647.53
2023-01-11T11:40:00.534Z,100647.75
2023-01-11T11:42:30.250Z,100656.75
2023-01-11T11:45:17.490Z,100658.41
2023-01-11T11:48:02.650Z,100665.97
2023-01-11T11:50:44.200Z,100662.06
2023-01-11T11:53:31.207Z,100678.84
2023-01-11T11:56:00.318Z,100678.44
2023-01-11T11:58:28.013Z,100678.44
2023-01-11T12:00:55.868Z,100669.88
2023-01-11T12:03:29.328Z,100673.56
2023-01-11T12:06:02.907Z,100673.97
2023-01-11T12:08:35.925Z,100667.44
2023-01-11T12:11:07.831Z,100668.69
2023-01-11T12:13:39.002Z,100660.13
2023-01-11T12:16:20.592Z,100675.44
2023-01-11T12:18:48.437Z,100666.25
2023-01-11T12:21:21.337Z,100666.66
2023-01-11T12:24:12.980Z,100665.25
2023-01-11T12:26:52.987Z,100662.97
2023-01-11T12:29:50.706Z,100678.91
2023-01-11T12:32:53.653Z,100685.81
2023-01-11T12:35:39.250Z,100684.16
2023-01-11T12:38:42.449Z,100685.81
2023-01-11T12:41:50.041Z,100678.00
2023-01-11T12:44:41.548Z,100674.34
2023-01-11T12:47:41.160Z,100683.75
2023-01-11T12:50:19.612Z,100701.56
2023-01-11T12:53:07.177Z,100697.69
2023-01-11T12:56:03.132Z,100703.03
2023-01-11T12:58:40.162Z,100703.41
2023-01-11T13:01:30.413Z,100700.97
2023-01-11T13:04:20.446Z,100708.31
2023-01-11T13:07:05.044Z,100706.03
2023-01-11T13:09:54.039Z,100704.81
2023-01-11T13:12:29.592Z,100703.75
2023-01-11T13:15:19.673Z,100705.03
2023-01-11T13:17:58.957Z,100721.00
2023-01-11T13:20:59.542Z,100715.91
2023-01-11T13:23:39.416Z,100711.63
2023-01-11T13:26:21.377Z,100718.81
2023-01-11T13:28:56.586Z,100730.84
2023-01-11T13:31:26.238Z,100721.44
2023-01-11T13:34:02.133Z,100737.81
2023-01-11T13:36:40.103Z,100733.50
2023-01-11T13:39:18.245Z,100735.09
2023-01-11T13:41:50.827Z,100748.81
2023-01-11T13:44:24.080Z,100748.59
2023-01-11T13:47:10.853Z,100758.19
2023-01-11T13:49:52.165Z,100751.84
2023-01-11T13:52:26.826Z,100756.56
2023-01-11T13:55:02.037Z,100760.63
2023-01-11T13:57:40.812Z,100762.06
2023-01-11T14:00:22.089Z,100761.44
2023-01-11T14:02:58.777Z,100761.84
2023-01-11T14:05:36.721Z,100765.31
2023-01-11T14:08:45.912Z,100772.44
2023-01-11T14:11:27.317Z,100768.78
2023-01-11T14:14:27.067Z,100765.94
2023-01-11T14:17:38.454Z,100776.31
2023-01-11T14:20:23.003Z,100780.19
2023-01-11T14:23:04.028Z,100785.09
2023-01-11T14:25:38.149Z,100773.66
2023-01-11T14:28:25.577Z,100765.53
2023-01-11T14:31:23.507Z,100779.78
2023-01-11T14:34:25.443Z,100783.88
2023-01-11T14:37:39.981Z,100783.47
2023-01-11T14:40:50.354Z,100792.44
2023-01-11T14:44:00.806Z,100802.41
2023-01-11T14:47:05.533Z,100798.97
2023-01-11T14:49:59.360Z,100806.31
2023-01-11T14:52:40.105Z,100811.63
2023-01-11T14:55:19.023Z,100800.16
2023-01-11T14:58:03.785Z,100806.28
2023-01-11T15:01:11.279Z,100811.13
2023-01-11T15:03:54.541Z,100809.50
2023-01-11T15:06:22.715Z,100812.34
2023-01-11T15:08:54.837Z,100816.03
2023-01-11T15:11:41.861Z,100820.50
2023-01-11T15:14:32.696Z,100824.53
2023-01-11T15:17:21.298Z,100820.06
2023-01-11T15:19:51.511Z,100823.09
2023-01-11T15:22:28.767Z,100823.09
2023-01-11T15:25:01.320Z,100819.63
2023-01-11T15:27:34.716Z,100809.00
2023-01-11T15:30:04.117Z,100796.81
2023-01-11T15:32:33.728Z,100798.84
2023-01-11T15:35:31.483Z,100803.69
2023-01-11T15:38:11.271Z,100801.84
2023-01-11T15:40:43.067Z,100801.44
2023-01-11T15:44:05.331Z,100803.31
2023-01-11T15:47:19.872Z,100824.91
2023-01-11T15:50:31.535Z,100815.75
2023-01-11T15:53:50.543Z,100819.22
2023-01-11T15:57:20.217Z,100822.44
2023-01-11T16:00:32.830Z,100813.47
2023-01-11T16:03:35.579Z,100811.84
2023-01-11T16:06:17.631Z,100811.94
2023-01-11T16:08:56.867Z,100814.13
2023-01-11T16:11:34.746Z,100816.91
2023-01-11T16:14:39.797Z,100813.00
2023-01-11T16:17:12.839Z,100810.13
2023-01-11T16:19:44.752Z,100817.63
2023-01-11T16:22:19.557Z,100813.13
2023-01-11T16:24:52.439Z,100820.81
2023-01-11T16:27:26.799Z,100827.16
2023-01-11T16:29:56.026Z,100815.19
2023-01-11T16:32:26.987Z,100821.72
2023-01-11T16:34:55.584Z,100822.88
2023-01-11T16:37:35.024Z,100818.16
2023-01-11T16:40:12.588Z,100821.59
2023-01-11T16:42:46.393Z,100824.38
2023-01-11T16:45:19.643Z,100822.31
2023-01-11T16:48:04.470Z,100824.28
2023-01-11T16:50:33.246Z,100836.13
2023-01-11T16:53:02.232Z,100828.56
2023-01-11T16:55:36.457Z,100843.44
2023-01-11T16:58:06.933Z,100845.50
2023-01-11T17:00:39.495Z,100853.59
2023-01-11T17:03:22.481Z,100844.63
2023-01-11T17:06:15.718Z,100853.56
2023-01-11T17:08:45.220Z,100848.09
2023-01-11T17:11:28.078Z,100842.56
2023-01-11T17:14:27.782Z,100847.34
2023-01-11T17:17:01.185Z,100844.13
2023-01-11T17:19:31.971Z,100853.50
2023-01-11T17:22:05.381Z,100851.69
2023-01-11T17:24:40.311Z,100857.34
2023-01-11T17:27:17.752Z,100860.31
2023-01-11T17:29:47.338Z,100857.41
2023-01-11T17:32:23.162Z,100862.69
2023-01-11T17:34:51.790Z,100865.69
2023-01-11T17:37:19.983Z,100864.44
2023-01-11T17:39:53.336Z,100866.22
2023-01-11T17:42:39.590Z,100867.97
2023-01-11T17:45:21.101Z,100865.66
2023-01-11T17:47:52.807Z,100873.41
2023-01-11T17:50:28.993Z,100879.06
2023-01-11T17:53:06.136Z,100876.84
2023-01-11T17:55:34.420Z,100881.19
2023-01-11T17:58:19.211Z,100877.88
2023-01-11T18:01:16.123Z,100872.59
2023-01-11T18:03:48.055Z,100869.31
2023-01-11T18:06:26.041Z,100867.31
2023-01-11T18:08:55.794Z,100866.28
2023-01-11T18:11:27.058Z,100870.25
2023-01-11T18:13:59.892Z,100865.59
2023-01-11T18:16:27.271Z,100864.56
2023-01-11T18:18:56.712Z,100863.31
2023-01-11T18:21:40.163Z,100871.44
2023-01-11T18:24:43.375Z,100861.19
2023-01-11T18:27:28.267Z,100860.66
2023-01-11T18:29:58.552Z,100869.22
2023-01-11T18:32:28.440Z,100872.69
2023-01-11T18:34:59.007Z,100868.22
2023-01-11T18:37:26.089Z,100860.78
2023-01-11T18:39:53.442Z,100864.41
2023-01-11T18:42:28.574Z,100869.50
2023-01-11T18:44:55.903Z,100861.00
2023-01-11T18:47:27.040Z,100858.22
2023-01-11T18:49:56.499Z,100861.88
2023-01-11T18:52:27.428Z,100858.59
2023-01-11T18:54:56.238Z,100852.31
2023-01-11T18:57:24.155Z,100849.63
2023-01-11T18:59:55.433Z,100841.31
2023-01-11T19:02:26.734Z,100842.09
2023-01-11T19:04:56.918Z,100843.34
2023-01-11T19:07:25.390Z,100832.50
2023-01-11T19:09:56.680Z,100827.44
2023-01-11T19:12:24.147Z,100829.88
2023-01-11T19:14:51.504Z,100827.63
2023-01-11T19:17:19.130Z,100827.34
2023-01-11T19:19:46.704Z,100816.88
2023-01-11T19:22:14.957Z,100814.88
2023-01-11T19:24:42.222Z,100817.91
2023-01-11T19:27:09.373Z,100810.34
2023-01-11T19:29:36.290Z,100808.91
2023-01-11T19:32:03.315Z,100814.63
2023-01-11T19:34:32.313Z,100820.28
2023-01-11T19:37:00.207Z,100812.63
2023-01-11T19:39:28.735Z,100815.78
2023-01-11T19:41:57.867Z,100805.16
2023-01-11T19:44:29.233Z,100799.88
2023-01-11T19:47:10.446Z,100794.19
2023-01-11T19:49:39.725Z,100787.38
2023-01-11T19:52:12.968Z,100779.06
2023-01-11T19:54:43.017Z,100783.63
2023-01-11T19:57:10.776Z,100784.94
2023-01-11T19:59:37.680Z,100788.22
2023-01-11T20:02:05.366Z,100780.69
2023-01-11T20:04:33.088Z,100779.03
2023-01-11T20:07:00.508Z,100776.41
2023-01-11T20:09:27.398Z,100772.38
2023-01-11T20:11:55.741Z,100760.56
2023-01-11T20:14:23.027Z,100766.47
2023-01-11T20:16:49.867Z,100766.31
2023-01-11T20:19:17.290Z,100769.56
2023-01-11T20:21:44.250Z,100771.03
2023-01-11T20:24:13.653Z,100765.13
2023-01-11T20:26:41.174Z,100764.72
2023-01-11T20:29:09.512Z,100755.81
2023-01-11T20:31:36.644Z,100757.81
2023-01-11T20:34:12.032Z,100741.97
2023-01-11T20:36:39.690Z,100744.88
2023-01-11T20:39:07.163Z,100728.75
2023-01-11T20:41:52.300Z,100738.09
2023-01-11T20:44:24.354Z,100718.41
2023-01-11T20:46:53.418Z,100716.84
2023-01-11T20:49:23.904Z,100714.44
2023-01-11T20:51:51.695Z,100704.88
2023-01-11T20:54:18.932Z,100707.16
2023-01-11T20:56:46.828Z,100693.94
2023-01-11T20:59:17.576Z,100697.97
2023-01-11T21:01:46.097Z,100695.53
2023-01-11T21:04:14.436Z,100693.56
2023-01-11T21:06:45.444Z,100693.44
2023-01-11T21:09:16.519Z,100686.16
2023-01-11T21:11:44.106Z,100680.94
2023-01-11T21:14:14.078Z,100682.19
2023-01-11T21:16:44.097Z,100672.84
2023-01-11T21:19:14.765Z,100683.31
2023-01-11T21:21:42.255Z,100665.66
2023-01-11T21:24:13.255Z,100668.00
2023-01-11T21:26:42.224Z,100662.59
2023-01-11T21:29:11.698Z,100662.78
2023-01-11T21:31:40.165Z,100657.66
2023-01-11T21:34:07.711Z,100646.31
2023-01-11T21:36:36.092Z,100648.44
2023-01-11T21:39:03.874Z,100648.03
2023-01-11T21:41:51.633Z,100644.16
2023-01-11T21:44:20.206Z,100638.72
2023-01-11T21:46:47.833Z,100641.78
2023-01-11T21:49:16.077Z,100647.72
2023-01-11T21:51:44.471Z,100649.28
2023-01-11T21:54:14.072Z,100649.69
2023-01-11T21:56:44.218Z,100633.47
2023-01-11T21:59:12.438Z,100633.41
2023-01-11T22:01:41.879Z,100631.75
2023-01-11T22:04:10.982Z,100630.16
2023-01-11T22:06:39.928Z,100636.25
2023-01-11T22:09:10.432Z,100626.81
2023-01-11T22:11:37.617Z,100624.38
2023-01-11T22:14:06.514Z,100619.66
2023-01-11T22:16:35.058Z,100621.53
2023-01-11T22:19:03.138Z,100619.00
2023-01-11T22:21:30.020Z,100610.84
2023-01-11T22:23:58.834Z,100611.19
2023-01-11T22:26:33.194Z,100611.00
2023-01-11T22:29:12.737Z,100603.91
2023-01-11T22:31:42.352Z,100607.84
2023-01-11T22:34:09.924Z,100605.34
2023-01-11T22:36:37.019Z,100609.41
2023-01-11T22:39:04.539Z,100603.38
2023-01-11T22:41:33.140Z,100599.09
2023-01-11T22:44:00.097Z,100609.41
2023-01-11T22:46:28.629Z,100614.22
2023-01-11T22:48:55.515Z,100597.38
2023-01-11T22:51:26.575Z,100591.38
2023-01-11T22:53:55.610Z,100586.53
2023-01-11T22:56:26.080Z,100595.50
2023-01-11T22:58:55.541Z,100601.41
2023-01-11T23:01:25.673Z,100590.47
2023-01-11T23:03:54.580Z,100590.03
2023-01-11T23:06:25.369Z,100596.31
2023-01-11T23:08:53.377Z,100579.44
2023-01-11T23:11:42.440Z,100592.28
2023-01-11T23:14:14.321Z,100579.94
2023-01-11T23:16:42.757Z,100590.84
2023-01-11T23:19:11.984Z,100573.16
2023-01-11T23:21:41.620Z,100565.84
2023-01-11T23:24:09.681Z,100576.22
2023-01-11T23:26:37.461Z,100559.50
2023-01-11T23:29:04.926Z,100559.34
2023-01-11T23:31:33.364Z,100576.09
2023-01-11T23:34:02.353Z,100557.06
2023-01-11T23:36:33.413Z,100567.63
2023-01-11T23:39:02.512Z,100557.84
2023-01-11T23:41:48.177Z,100573.75
2023-01-11T23:44:17.209Z,100567.94
2023-01-11T23:47:04.929Z,100572.47
2023-01-11T23:49:32.762Z,100542.47
2023-01-11T23:52:00.786Z,100546.97
2023-01-11T23:54:30.423Z,100544.59
2023-01-11T23:56:58.805Z,100540.38
2023-01-11T23:59:25.876Z,100551.94
